| time (UTC) | temp F | wind direction | speed MPH | gust MPH | rain 1hr in | rain 24hr in | rain mn in | humidity % | barometer mb |
| 20260509031554 | 48 | 0 | 0.0 | 0.0 | 0.00 | 0.01 | 0.01 | 53 | 1006.3 |
| 20260509030055 | 47 | 0 | 0.0 | 0.0 | 0.00 | 0.01 | 0.01 | 65 | 1006.6 |
| 20260509024552 | 48 | 0 | 0.0 | 0.0 | 0.00 | 0.01 | 0.01 | 66 | 1006.7 |
| 20260509023050 | 48 | 0 | 0.0 | 0.0 | 0.00 | 0.01 | 0.01 | 59 | 1006.6 |
| 20260509021601 | 49 | 0 | 0.0 | 0.0 | 0.00 | 0.01 | 0.01 | 55 | 1006.7 |
| 20260509020057 | 50 | 0 | 0.0 | 0.0 | 0.00 | 0.01 | 0.01 | 52 | 1006.6 |
| 20260509014553 | 52 | 0 | 0.0 | 0.0 | 0.00 | 0.01 | 0.01 | 51 | 1006.6 |
| 20260509013107 | 53 | 0 | 0.0 | 0.0 | 0.00 | 0.01 | 0.01 | 49 | 1006.4 |
| 20260509011554 | 56 | 0 | 0.0 | 0.0 | 0.00 | 0.01 | 0.01 | 42 | 1006.2 |
| 20260509010054 | 58 | 0 | 0.0 | 1.0 | 0.00 | 0.01 | 0.01 | 44 | 1006.0 |
| 20260509004607 | 59 | 249 | 0.0 | 2.0 | 0.00 | 0.01 | 0.01 | 32 | 1006.0 |
| 20260509003053 | 59 | 0 | 0.0 | 1.0 | 0.00 | 0.01 | 0.01 | 30 | 1005.9 |
| 20260509001556 | 60 | 262 | 0.0 | 6.0 | 0.00 | 0.01 | 0.01 | 30 | 1006.0 |
| 20260509000055 | 60 | 289 | 2.0 | 7.0 | 0.00 | 0.01 | 0.01 | 28 | 1005.9 |
| 20260508234555 | 61 | 289 | 2.0 | 7.0 | 0.00 | 0.01 | 0.01 | 28 | 1005.8 |
| 20260508233100 | 62 | 288 | 4.0 | 9.0 | 0.00 | 0.01 | 0.01 | 27 | 1005.8 |
| 20260508231557 | 63 | 256 | 4.0 | 13.0 | 0.00 | 0.01 | 0.01 | 26 | 1005.7 |
| 20260508230057 | 63 | 286 | 4.0 | 11.0 | 0.00 | 0.01 | 0.01 | 27 | 1005.8 |
| 20260508224610 | 63 | 158 | 4.0 | 11.0 | 0.00 | 0.01 | 0.01 | 27 | 1005.9 |
| 20260508223054 | 63 | 317 | 3.0 | 10.0 | 0.00 | 0.01 | 0.01 | 26 | 1006.0 |
| 20260508221552 | 62 | 208 | 7.0 | 13.0 | 0.00 | 0.01 | 0.01 | 26 | 1006.1 |
| 20260508220057 | 62 | 252 | 7.0 | 18.0 | 0.00 | 0.01 | 0.01 | 26 | 1006.3 |
| 20260508214551 | 62 | 166 | 9.0 | 17.0 | 0.00 | 0.01 | 0.01 | 27 | 1006.4 |
| 20260508213055 | 62 | 207 | 7.0 | 12.0 | 0.00 | 0.01 | 0.01 | 27 | 1006.6 |
| 20260508211553 | 62 | 210 | 3.0 | 12.0 | 0.00 | 0.01 | 0.01 | 29 | 1006.6 |
| 20260508210053 | 61 | 270 | 6.0 | 14.0 | 0.00 | 0.01 | 0.01 | 29 | 1006.6 |
| 20260508204553 | 61 | 155 | 7.0 | 13.0 | 0.00 | 0.01 | 0.01 | 30 | 1006.9 |
| 20260508203056 | 61 | 223 | 8.0 | 13.0 | 0.00 | 0.01 | 0.01 | 29 | 1007.1 |
| 20260508201551 | 60 | 187 | 6.0 | 20.0 | 0.00 | 0.01 | 0.01 | 30 | 1007.1 |
| 20260508200103 | 60 | 188 | 9.0 | 18.0 | 0.00 | 0.01 | 0.01 | 30 | 1007.4 |
| 20260508194557 | 59 | 258 | 3.0 | 14.0 | 0.00 | 0.01 | 0.01 | 30 | 1007.5 |
| 20260508193048 | 59 | 310 | 5.0 | 14.0 | 0.00 | 0.01 | 0.01 | 31 | 1007.7 |
| 20260508191553 | 59 | 199 | 5.0 | 17.0 | 0.00 | 0.01 | 0.01 | 32 | 1007.9 |
| 20260508190054 | 59 | 237 | 1.0 | 13.0 | 0.00 | 0.01 | 0.01 | 30 | 1008.0 |
| 20260508184553 | 59 | 246 | 7.0 | 13.0 | 0.00 | 0.01 | 0.01 | 30 | 1008.6 |
| 20260508183054 | 58 | 255 | 5.0 | 15.0 | 0.00 | 0.01 | 0.01 | 30 | 1008.6 |
| 20260508181556 | 59 | 269 | 5.0 | 12.0 | 0.00 | 0.01 | 0.01 | 31 | 1008.8 |
| 20260508180056 | 58 | 263 | 7.0 | 16.0 | 0.00 | 0.01 | 0.01 | 31 | 1008.9 |
| 20260508174608 | 58 | 242 | 8.0 | 14.0 | 0.00 | 0.01 | 0.01 | 30 | 1009.4 |
| 20260508173052 | 57 | 173 | 5.0 | 11.0 | 0.00 | 0.01 | 0.01 | 32 | 1009.4 |
| 20260508171551 | 57 | 156 | 8.0 | 14.0 | 0.00 | 0.01 | 0.01 | 31 | 1009.7 |
| 20260508170054 | 56 | 165 | 2.0 | 10.0 | 0.00 | 0.01 | 0.01 | 33 | 1009.8 |
| 20260508164557 | 56 | 194 | 5.0 | 14.0 | 0.00 | 0.01 | 0.01 | 34 | 1010.0 |
| 20260508163053 | 55 | 315 | 6.0 | 12.0 | 0.00 | 0.01 | 0.01 | 33 | 1010.2 |
| 20260508161551 | 55 | 188 | 4.0 | 14.0 | 0.00 | 0.01 | 0.01 | 33 | 1010.1 |
| 20260508160055 | 55 | 181 | 7.0 | 12.0 | 0.00 | 0.01 | 0.01 | 33 | 1010.3 |
| 20260508154554 | 54 | 196 | 6.0 | 9.0 | 0.00 | 0.01 | 0.01 | 36 | 1010.3 |
| 20260508153055 | 54 | 223 | 5.0 | 11.0 | 0.00 | 0.01 | 0.01 | 39 | 1010.3 |
| 20260508151600 | 53 | 230 | 3.0 | 9.0 | 0.00 | 0.01 | 0.01 | 42 | 1010.6 |
| 20260508150056 | 53 | 257 | 4.0 | 11.0 | 0.00 | 0.01 | 0.01 | 42 | 1010.7 |
| 20260508144553 | 52 | 305 | 1.0 | 12.0 | 0.00 | 0.01 | 0.01 | 45 | 1010.9 |
| 20260508143056 | 52 | 188 | 1.0 | 8.0 | 0.00 | 0.01 | 0.01 | 48 | 1010.9 |
| 20260508141550 | 51 | 148 | 2.0 | 9.0 | 0.00 | 0.01 | 0.01 | 53 | 1011.0 |
| 20260508140058 | 50 | 261 | 3.0 | 9.0 | 0.00 | 0.01 | 0.01 | 51 | 1011.1 |
| 20260508134554 | 49 | 165 | 5.0 | 10.0 | 0.00 | 0.01 | 0.01 | 59 | 1011.2 |
| 20260508133103 | 48 | 164 | 4.0 | 8.0 | 0.00 | 0.01 | 0.01 | 61 | 1011.3 |
| 20260508131559 | 47 | 140 | 4.0 | 7.0 | 0.00 | 0.01 | 0.01 | 61 | 1011.5 |
| 20260508130105 | 46 | 154 | 4.0 | 6.0 | 0.00 | 0.01 | 0.01 | 67 | 1011.5 |
| 20260508124556 | 45 | 153 | 3.0 | 5.0 | 0.01 | 0.01 | 0.01 | 75 | 1011.3 |
| 20260508123059 | 43 | 160 | 2.0 | 4.0 | 0.01 | 0.01 | 0.01 | 83 | 1011.3 |
| 20260508121620 | 40 | 167 | 1.0 | 3.0 | 0.01 | 0.01 | 0.01 | 90 | 1011.0 |
| 20260508120101 | 38 | 138 | 1.0 | 3.0 | 0.01 | 0.01 | 0.01 | 95 | 1010.9 |
| 20260508114557 | 36 | 0 | 0.0 | 0.0 | 0.00 | 0.00 | 0.00 | 94 | 1010.9 |
| 20260508113105 | 35 | 0 | 0.0 | 0.0 | 0.00 | 0.00 | 0.00 | 93 | 1010.8 |
| 20260508111602 | 34 | 0 | 0.0 | 0.0 | 0.00 | 0.00 | 0.00 | 93 | 1010.6 |
| 20260508110058 | 34 | 0 | 0.0 | 0.0 | 0.00 | 0.00 | 0.00 | 93 | 1010.6 |
| 20260508104559 | 34 | 0 | 0.0 | 0.0 | 0.00 | 0.00 | 0.00 | 93 | 1010.7 |
| 20260508103051 | 34 | 0 | 0.0 | 0.0 | 0.00 | 0.00 | 0.00 | 92 | 1010.7 |
| 20260508101553 | 34 | 0 | 0.0 | 0.0 | 0.00 | 0.00 | 0.00 | 91 | 1010.7 |
| 20260508100051 | 35 | 0 | 0.0 | 0.0 | 0.00 | 0.00 | 0.00 | 91 | 1010.6 |
| 20260508094552 | 35 | 0 | 0.0 | 0.0 | 0.00 | 0.00 | 0.00 | 92 | 1010.6 |
| 20260508093055 | 36 | 0 | 0.0 | 0.0 | 0.00 | 0.00 | 0.00 | 91 | 1010.6 |
| 20260508091557 | 37 | 0 | 0.0 | 0.0 | 0.00 | 0.00 | 0.00 | 92 | 1010.8 |
| 20260508090059 | 37 | 0 | 0.0 | 0.0 | 0.00 | 0.00 | 0.00 | 90 | 1010.9 |
| 20260508084551 | 37 | 0 | 0.0 | 0.0 | 0.00 | 0.00 | 0.00 | 90 | 1010.9 |
| 20260508083054 | 38 | 0 | 0.0 | 0.0 | 0.00 | 0.00 | 0.00 | 90 | 1010.8 |
| 20260508081605 | 39 | 0 | 0.0 | 0.0 | 0.00 | 0.00 | 0.00 | 90 | 1010.9 |
| 20260508080053 | 39 | 0 | 0.0 | 0.0 | 0.00 | 0.00 | 0.00 | 89 | 1010.9 |
| 20260508074550 | 40 | 0 | 0.0 | 0.0 | 0.00 | 0.00 | 0.00 | 88 | 1010.9 |
| 20260508073104 | 41 | 0 | 0.0 | 0.0 | 0.00 | 0.00 | 0.00 | 88 | 1010.9 |
| 20260508071618 | 41 | 0 | 0.0 | 0.0 | 0.00 | 0.00 | 0.00 | 86 | 1010.9 |
| 20260508064554 | 41 | 0 | 1.0 | 4.0 | 0.00 | 0.00 | 0.00 | 84 | 1010.8 |
| 20260508063057 | 41 | 0 | 0.0 | 0.0 | 0.00 | 0.00 | 0.00 | 85 | 1011.0 |
| 20260508061555 | 42 | 0 | 0.0 | 1.0 | 0.00 | 0.00 | 0.00 | 87 | 1010.8 |
| 20260508060053 | 41 | 180 | 1.0 | 4.0 | 0.00 | 0.00 | 0.00 | 86 | 1011.2 |
| 20260508054602 | 42 | 153 | 1.0 | 2.0 | 0.00 | 0.00 | 0.00 | 86 | 1011.2 |
| 20260508053055 | 42 | 0 | 0.0 | 2.0 | 0.00 | 0.00 | 0.00 | 85 | 1011.2 |
| 20260508051553 | 43 | 256 | 0.0 | 2.0 | 0.00 | 0.00 | 0.00 | 82 | 1011.4 |
| 20260508050054 | 43 | 0 | 1.0 | 3.0 | 0.00 | 0.00 | 0.00 | 80 | 1011.1 |
| 20260508044559 | 43 | 0 | 0.0 | 2.0 | 0.00 | 0.00 | 0.00 | 80 | 1011.2 |
| 20260508043054 | 43 | 0 | 0.0 | 0.0 | 0.00 | 0.00 | 0.00 | 79 | 1011.3 |
| 20260508041553 | 43 | 0 | 0.0 | 2.0 | 0.00 | 0.00 | 0.00 | 78 | 1011.3 |
| 20260508040057 | 43 | 0 | 0.0 | 3.0 | 0.00 | 0.00 | 0.00 | 77 | 1011.2 |
| 20260508034552 | 43 | 0 | 0.0 | 0.0 | 0.00 | 0.00 | 0.00 | 77 | 1011.3 |
| 20260508033112 | 43 | 0 | 0.0 | 0.0 | 0.00 | 0.00 | 0.00 | 77 | 1011.1 |